Bezoek onze andere website:

Meteotemplate

Home Weather Station

Saratoga


Lokaal brand risico:
CBI


Regionaal brand risico: Meer informatie



METAR rapporten vliegvelden

   
EBBR - Brussels
Gewijzigd: Dec 18 2018 10:20 pm
Helder  
Helder  
   Wind: Zuiden 24.1 km/h
Wind: Zuiden 24.1 km/h
Temperatuur: 7°C
Voelt als: 3°C
Dauwpunt: 1°C
Vochtigheid: 66%
Barometer: 1009 mb
Zicht: meer dan 10 km
Bewolking: Helder
EBBR 182120Z 17013KT 140V200 CAVOK 07/01 Q1009 NOSIG
EBAW - Antwerp
Gewijzigd: Dec 18 2018 10:20 pm
Helder  
Helder  
   Wind: ZZO 20.4 km/h
Wind: ZZO 20.4 km/h
Temperatuur: 7°C
Voelt als: 3°C
Dauwpunt: 1°C
Vochtigheid: 66%
Barometer: 1010 mb
Zicht: meer dan 10 km
Bewolking: Helder
EBAW 182120Z 16011KT CAVOK 07/01 Q1010 NOSIG
EHBK - Maastricht
Gewijzigd: Dec 18 2018 10:25 pm
Gedeeltelijk bewolkt  
Gedeeltelijk bewolkt  
   Wind: Zuiden 14.8 km/h
Wind: Zuiden 14.8 km/h
Temperatuur: 7°C
Voelt als: 4°C
Dauwpunt: 0°C
Vochtigheid: 61%
Barometer: 1012 mb
Bewolking: Gedeeltelijk bewolkt
Zicht: meer dan 10 km
Bewolking: Gedeeltelijk bewolkt
EHBK 182125Z AUTO 17008KT 130V210 9999 NSC 07/00 Q1012 NOSIG
EDLV - Nijmegen
Gewijzigd: Dec 18 2018 10:20 pm
Helder  
Helder  
   Wind: ZO 25.9 km/h
Wind: ZO 25.9 km/h
Temperatuur: 6°C
Voelt als: 2°C
Dauwpunt: 3°C
Vochtigheid: 81%
Barometer: 1012 mb
Zicht: meer dan 10 km
Bewolking: Helder
EDLV 182120Z 14014KT CAVOK 06/03 Q1012
EHRD - Rotterdam
Gewijzigd: Dec 18 2018 10:25 pm
Gedeeltelijk bewolkt  
Gedeeltelijk bewolkt  
   Wind: ZZO 27.8 km/h
Wind: ZZO 27.8 km/h
Temperatuur: 7°C
Voelt als: 3°C
Dauwpunt: 2°C
Vochtigheid: 71%
Barometer: 1009 mb
Bewolking: Gedeeltelijk bewolkt
Zicht: meer dan 10 km
Bewolking: Gedeeltelijk bewolkt
EHRD 182125Z AUTO 15015KT 120V180 9999 NSC 07/02 Q1009 NOSIG
 

Script ontwikkeld door  Saratoga-weather.org Aangepast voor de template door  Weerstation Leuven

U vindt ons ook hier:

Het Weer Aktueel

UK Metoffice

European Weather Network

WeatherCloud

Weather Underground

Benelux Weer Netwerk

AWEKAS

Citizen Weather Observer Program (CWOP)

Apparatuur in gebruik:

Weerstation
Davis VP2

Weerprogramma
Meteobridge

Weercomputer
TP-Link MR3020

Davis VP2

Meteobridge

TP-Link MR3020